createdAt,value
2022-08-16T00:00:20.474Z,18.38
2022-08-16T00:02:49.189Z,18.44
2022-08-16T00:05:15.907Z,18.37
2022-08-16T00:07:42.308Z,18.25
2022-08-16T00:10:09.629Z,18.37
2022-08-16T00:12:47.309Z,18.17
2022-08-16T00:15:24.289Z,18.00
2022-08-16T00:17:56.218Z,17.82
2022-08-16T00:20:24.122Z,17.77
2022-08-16T00:22:51.499Z,17.70
2022-08-16T00:25:18.252Z,17.59
2022-08-16T00:27:44.746Z,17.49
2022-08-16T00:30:28.518Z,17.58
2022-08-16T00:32:56.998Z,17.54
2022-08-16T00:35:26.247Z,17.42
2022-08-16T00:37:59.476Z,17.43
2022-08-16T00:40:50.810Z,17.61
2022-08-16T00:43:21.609Z,17.93
2022-08-16T00:45:57.768Z,18.14
2022-08-16T00:48:30.177Z,18.08
2022-08-16T00:50:57.805Z,17.82
2022-08-16T00:53:26.156Z,17.63
2022-08-16T00:55:53.114Z,17.77
2022-08-16T00:58:34.343Z,17.66
2022-08-16T01:01:01.633Z,17.54
2022-08-16T01:03:30.294Z,17.51
2022-08-16T01:05:56.936Z,17.45
2022-08-16T01:08:35.464Z,17.41
2022-08-16T01:11:03.531Z,17.43
2022-08-16T01:13:30.692Z,17.52
2022-08-16T01:16:01.266Z,17.54
2022-08-16T01:18:41.456Z,17.52
2022-08-16T01:21:33.470Z,17.57
2022-08-16T01:24:05.622Z,17.47
2022-08-16T01:26:51.979Z,17.44
2022-08-16T01:29:20.142Z,17.51
2022-08-16T01:32:06.490Z,17.53
2022-08-16T01:34:36.329Z,17.63
2022-08-16T01:37:13.999Z,17.75
2022-08-16T01:39:42.713Z,17.78
2022-08-16T01:42:12.976Z,17.75
2022-08-16T01:44:39.803Z,17.86
2022-08-16T01:47:06.252Z,17.67
2022-08-16T01:49:43.603Z,17.71
2022-08-16T01:52:29.533Z,17.64
2022-08-16T01:54:57.050Z,17.56
2022-08-16T01:57:24.703Z,17.47
2022-08-16T01:59:54.417Z,17.45
2022-08-16T02:02:27.018Z,17.43
2022-08-16T02:04:55.172Z,17.53
2022-08-16T02:07:23.611Z,17.53
2022-08-16T02:09:58.648Z,17.55
2022-08-16T02:12:45.828Z,17.54
2022-08-16T02:15:13.946Z,17.55
2022-08-16T02:17:40.420Z,17.63
2022-08-16T02:20:11.668Z,17.70
2022-08-16T02:22:38.660Z,17.69
2022-08-16T02:25:06.533Z,17.70
2022-08-16T02:27:34.809Z,17.61
2022-08-16T02:30:05.107Z,17.54
2022-08-16T02:32:51.148Z,17.49
2022-08-16T02:35:18.526Z,17.49
2022-08-16T02:37:51.590Z,17.44
2022-08-16T02:40:19.640Z,17.48
2022-08-16T02:42:47.877Z,17.55
2022-08-16T02:45:16.046Z,17.59
2022-08-16T02:48:00.300Z,17.49
2022-08-16T02:50:55.564Z,17.39
2022-08-16T02:53:15.125Z,17.27
2022-08-16T02:55:44.736Z,17.36
2022-08-16T02:58:11.598Z,17.28
2022-08-16T03:00:40.216Z,17.27
2022-08-16T03:03:12.013Z,17.34
2022-08-16T03:05:42.035Z,17.27
2022-08-16T03:08:52.086Z,17.21
2022-08-16T03:10:55.727Z,17.13
2022-08-16T03:13:25.805Z,17.08
2022-08-16T03:15:52.891Z,17.18
2022-08-16T03:18:34.469Z,17.28
2022-08-16T03:21:07.166Z,17.45
2022-08-16T03:23:36.543Z,17.42
2022-08-16T03:26:02.910Z,17.41
2022-08-16T03:28:29.284Z,17.44
2022-08-16T03:30:56.723Z,17.51
2022-08-16T03:33:23.090Z,17.42
2022-08-16T03:35:49.771Z,17.17
2022-08-16T03:38:32.544Z,17.09
2022-08-16T03:41:00.159Z,16.96
2022-08-16T03:43:51.874Z,17.01
2022-08-16T03:46:47.445Z,16.79
2022-08-16T03:49:02.775Z,16.78
2022-08-16T03:51:29.150Z,16.80
2022-08-16T03:53:57.735Z,16.74
2022-08-16T03:56:27.954Z,16.89
2022-08-16T03:58:57.181Z,16.76
2022-08-16T04:01:24.566Z,16.69
2022-08-16T04:03:55.863Z,16.80
2022-08-16T04:06:22.500Z,16.90
2022-08-16T04:08:48.911Z,16.99
2022-08-16T04:11:16.265Z,17.10
2022-08-16T04:13:59.456Z,17.20
2022-08-16T04:16:31.199Z,17.04
2022-08-16T04:19:02.258Z,17.12
2022-08-16T04:21:32.079Z,17.02
2022-08-16T04:23:59.203Z,16.90
2022-08-16T04:26:25.587Z,17.05
2022-08-16T04:29:17.087Z,17.06
2022-08-16T04:31:43.927Z,17.17
2022-08-16T04:34:10.345Z,17.01
2022-08-16T04:36:39.378Z,16.99
2022-08-16T04:39:05.736Z,16.98
2022-08-16T04:41:37.486Z,17.02
2022-08-16T04:44:33.186Z,17.15
2022-08-16T04:47:03.462Z,17.51
2022-08-16T04:49:43.994Z,17.54
2022-08-16T04:52:33.093Z,17.76
2022-08-16T04:54:59.041Z,17.87
2022-08-16T04:57:26.398Z,18.03
2022-08-16T04:59:58.373Z,18.16
2022-08-16T05:02:42.202Z,18.30
2022-08-16T05:05:17.131Z,18.56
2022-08-16T05:07:57.938Z,18.65
2022-08-16T05:10:26.362Z,18.83
2022-08-16T05:12:52.722Z,18.93
2022-08-16T05:15:19.094Z,18.91
2022-08-16T05:17:46.779Z,19.03
2022-08-16T05:20:38.711Z,19.17
2022-08-16T05:22:59.547Z,19.22
2022-08-16T05:25:48.561Z,19.26
2022-08-16T05:28:13.106Z,19.35
2022-08-16T05:30:39.732Z,19.39
2022-08-16T05:33:16.674Z,19.45
2022-08-16T05:35:44.640Z,19.47
2022-08-16T05:38:33.477Z,19.59
2022-08-16T05:41:05.964Z,19.56
2022-08-16T05:43:46.835Z,19.47
2022-08-16T05:46:30.085Z,19.29
2022-08-16T05:49:03.133Z,19.16
2022-08-16T05:51:38.135Z,19.14
2022-08-16T05:54:06.649Z,19.05
2022-08-16T05:56:33.007Z,19.01
2022-08-16T05:59:02.416Z,18.87
2022-08-16T06:01:29.272Z,18.76
2022-08-16T06:03:59.295Z,18.70
2022-08-16T06:06:27.989Z,18.68
2022-08-16T06:08:55.447Z,18.75
2022-08-16T06:11:22.190Z,18.86
2022-08-16T06:13:51.959Z,18.80
2022-08-16T06:16:22.054Z,18.76
2022-08-16T06:18:53.324Z,18.73
2022-08-16T06:21:22.899Z,18.93
2022-08-16T06:23:53.968Z,19.20
2022-08-16T06:26:20.838Z,19.61
2022-08-16T06:28:47.267Z,19.93
2022-08-16T06:31:13.710Z,20.16
2022-08-16T06:33:41.592Z,20.45
2022-08-16T06:36:09.002Z,20.64
2022-08-16T06:38:35.788Z,20.71
2022-08-16T06:41:05.788Z,20.83
2022-08-16T06:43:35.505Z,20.88
2022-08-16T06:46:03.573Z,20.98
2022-08-16T06:48:32.803Z,21.06
2022-08-16T06:51:00.168Z,20.99
2022-08-16T06:53:26.539Z,20.97
2022-08-16T06:55:58.114Z,21.11
2022-08-16T06:58:31.716Z,21.14
2022-08-16T07:00:59.673Z,21.09
2022-08-16T07:03:28.273Z,21.04
2022-08-16T07:05:59.037Z,21.30
2022-08-16T07:08:25.638Z,21.46
2022-08-16T07:10:53.889Z,21.66
2022-08-16T07:13:43.673Z,21.59
2022-08-16T07:16:07.596Z,21.51
2022-08-16T07:18:35.075Z,21.34
2022-08-16T07:21:02.357Z,21.36
2022-08-16T07:23:36.949Z,21.51
2022-08-16T07:26:06.087Z,21.92
2022-08-16T07:28:32.472Z,22.13
2022-08-16T07:31:01.944Z,22.28
2022-08-16T07:33:51.827Z,22.34
2022-08-16T07:36:14.897Z,22.32
2022-08-16T07:38:48.822Z,22.43
2022-08-16T07:41:16.429Z,22.41
2022-08-16T07:43:43.303Z,22.54
2022-08-16T07:46:37.570Z,22.34
2022-08-16T07:48:56.263Z,22.40
2022-08-16T07:51:31.718Z,22.77
2022-08-16T07:54:02.336Z,22.82
2022-08-16T07:56:37.193Z,22.79
2022-08-16T07:59:04.088Z,22.85
2022-08-16T08:01:31.882Z,23.06
2022-08-16T08:03:58.516Z,23.05
2022-08-16T08:06:25.611Z,22.96
2022-08-16T08:08:57.614Z,22.75
2022-08-16T08:11:28.150Z,22.89
2022-08-16T08:13:55.028Z,22.82
2022-08-16T08:16:30.129Z,23.08
2022-08-16T08:19:01.039Z,23.17
2022-08-16T08:22:01.068Z,23.40
2022-08-16T08:24:15.561Z,22.89
2022-08-16T08:26:43.038Z,23.52
2022-08-16T08:29:09.592Z,23.56
2022-08-16T08:31:36.388Z,23.77
2022-08-16T08:34:07.224Z,23.37
2022-08-16T08:36:34.418Z,23.71
2022-08-16T08:39:12.541Z,23.89
2022-08-16T08:41:40.471Z,23.94
2022-08-16T08:44:28.732Z,24.00
2022-08-16T08:47:00.130Z,23.98
2022-08-16T08:49:46.323Z,23.99
2022-08-16T08:52:33.724Z,24.34
2022-08-16T08:55:03.265Z,24.38
2022-08-16T08:57:35.697Z,24.46
2022-08-16T09:00:03.137Z,24.38
2022-08-16T09:02:39.730Z,24.41
2022-08-16T09:05:14.909Z,24.64
2022-08-16T09:08:00.959Z,24.61
2022-08-16T09:10:29.420Z,24.81
2022-08-16T09:12:56.391Z,24.70
2022-08-16T09:15:23.890Z,25.16
2022-08-16T09:17:55.695Z,25.11
2022-08-16T09:20:23.675Z,24.99
2022-08-16T09:22:52.683Z,24.93
2022-08-16T09:25:25.781Z,24.70
2022-08-16T09:28:02.644Z,24.61
2022-08-16T09:30:43.996Z,25.11
2022-08-16T09:33:11.084Z,24.94
2022-08-16T09:35:38.735Z,25.24
2022-08-16T09:38:05.669Z,25.35
2022-08-16T09:40:42.764Z,25.35
2022-08-16T09:43:21.048Z,25.54
2022-08-16T09:45:56.835Z,25.55
2022-08-16T09:48:44.100Z,25.72
2022-08-16T09:51:09.822Z,25.72
2022-08-16T09:53:37.421Z,25.47
2022-08-16T09:56:11.531Z,25.67
2022-08-16T09:59:05.258Z,25.72
2022-08-16T10:01:24.526Z,25.95
2022-08-16T10:04:01.564Z,26.04
2022-08-16T10:06:33.485Z,26.06
2022-08-16T10:09:05.584Z,26.35
2022-08-16T10:11:51.704Z,26.44
2022-08-16T10:14:19.947Z,26.46
2022-08-16T10:16:51.149Z,26.60
2022-08-16T10:19:26.219Z,26.94
2022-08-16T10:21:56.552Z,26.62
2022-08-16T10:24:28.324Z,26.93
2022-08-16T10:27:16.313Z,27.08
2022-08-16T10:30:00.129Z,27.34
2022-08-16T10:32:27.975Z,27.74
2022-08-16T10:34:57.212Z,26.56
2022-08-16T10:37:32.217Z,27.21
2022-08-16T10:40:02.558Z,27.26
2022-08-16T10:42:29.134Z,27.05
2022-08-16T10:44:56.351Z,27.30
2022-08-16T10:47:22.987Z,27.27
2022-08-16T10:49:50.112Z,27.62
2022-08-16T10:52:18.145Z,27.22
2022-08-16T10:55:40.835Z,26.91
2022-08-16T10:57:35.123Z,27.38
2022-08-16T11:00:04.425Z,27.93
2022-08-16T11:02:59.374Z,27.77
2022-08-16T11:05:18.126Z,27.23
2022-08-16T11:07:52.447Z,27.48
2022-08-16T11:11:05.263Z,27.57
2022-08-16T11:15:57.489Z,29.07
2022-08-16T11:18:48.685Z,28.74
2022-08-16T11:21:10.645Z,29.00
2022-08-16T11:23:58.366Z,28.82
2022-08-16T11:26:25.422Z,28.78
2022-08-16T11:31:39.495Z,29.59
2022-08-16T11:34:09.219Z,29.34
2022-08-16T11:36:36.669Z,28.98
2022-08-16T11:39:03.665Z,29.12
2022-08-16T11:41:32.305Z,29.56
2022-08-16T11:43:58.837Z,29.42
2022-08-16T11:46:44.521Z,29.29
2022-08-16T11:49:13.976Z,30.23
2022-08-16T11:51:43.839Z,29.44
2022-08-16T11:54:20.834Z,29.06
2022-08-16T11:56:52.901Z,28.99
2022-08-16T11:59:25.344Z,29.41
2022-08-16T12:02:00.068Z,30.38
2022-08-16T12:04:45.028Z,30.41
2022-08-16T12:07:11.390Z,30.46
2022-08-16T12:09:43.533Z,30.06
2022-08-16T12:12:10.024Z,30.36
2022-08-16T12:14:37.637Z,30.79
2022-08-16T12:17:04.518Z,30.37
2022-08-16T12:19:35.236Z,29.52
2022-08-16T12:22:05.903Z,29.55
2022-08-16T12:24:47.873Z,29.75
2022-08-16T12:27:17.670Z,30.48
2022-08-16T12:29:44.041Z,30.84
2022-08-16T12:32:37.906Z,30.79
2022-08-16T12:34:56.749Z,30.20
2022-08-16T12:37:24.632Z,30.10
2022-08-16T12:39:52.430Z,30.98
2022-08-16T12:42:19.484Z,31.77
2022-08-16T12:44:47.164Z,30.19
2022-08-16T12:47:32.647Z,30.36
2022-08-16T12:49:59.348Z,29.76
2022-08-16T12:52:32.772Z,30.20
2022-08-16T12:55:00.559Z,31.22
2022-08-16T12:57:36.445Z,30.88
2022-08-16T13:00:04.909Z,30.58
2022-08-16T13:02:33.314Z,30.24
2022-08-16T13:05:02.578Z,30.18
2022-08-16T13:07:29.561Z,31.23
2022-08-16T13:10:21.010Z,30.54
2022-08-16T13:12:58.590Z,31.15
2022-08-16T13:15:25.665Z,31.58
2022-08-16T13:17:54.394Z,31.54
2022-08-16T13:20:22.568Z,32.22
2022-08-16T13:22:50.838Z,32.20
2022-08-16T13:25:20.833Z,32.50
2022-08-16T13:28:02.823Z,32.16
2022-08-16T13:30:36.969Z,32.60
2022-08-16T13:33:12.512Z,32.87
2022-08-16T13:35:43.323Z,32.70
2022-08-16T13:38:10.220Z,31.92
2022-08-16T13:40:47.920Z,32.14
2022-08-16T13:43:15.416Z,30.97
2022-08-16T13:45:44.926Z,31.01
2022-08-16T13:48:11.605Z,31.80
2022-08-16T13:50:52.134Z,31.90
2022-08-16T13:53:18.699Z,32.67
2022-08-16T13:55:58.435Z,32.53
2022-08-16T13:58:37.309Z,31.83
2022-08-16T14:01:12.302Z,32.28
2022-08-16T14:03:39.532Z,31.90
2022-08-16T14:06:06.608Z,32.59
2022-08-16T14:08:37.402Z,30.89
2022-08-16T14:11:11.809Z,31.42
2022-08-16T14:13:38.965Z,31.18
2022-08-16T14:16:08.211Z,31.13
2022-08-16T14:18:50.904Z,30.04
2022-08-16T14:21:19.295Z,29.51
2022-08-16T14:23:48.384Z,29.42
2022-08-16T14:26:14.792Z,29.93
2022-08-16T14:28:41.156Z,30.70
2022-08-16T14:31:09.386Z,31.60
2022-08-16T14:33:35.963Z,32.24
2022-08-16T14:36:02.327Z,31.79
2022-08-16T14:38:29.795Z,30.61
2022-08-16T14:41:06.901Z,30.13
2022-08-16T14:43:36.627Z,30.08
2022-08-16T14:46:04.612Z,29.67
2022-08-16T14:48:33.994Z,29.33
2022-08-16T14:51:01.091Z,29.49
2022-08-16T14:53:27.955Z,30.03
2022-08-16T14:55:54.369Z,30.04
2022-08-16T14:58:34.538Z,29.73
2022-08-16T15:01:03.057Z,29.60
2022-08-16T15:03:29.573Z,29.31
2022-08-16T15:06:00.341Z,29.41
2022-08-16T15:08:36.129Z,29.52
2022-08-16T15:11:03.343Z,29.80
2022-08-16T15:13:29.690Z,29.77
2022-08-16T15:15:58.978Z,29.55
2022-08-16T15:18:31.947Z,29.79
2022-08-16T15:20:58.806Z,29.70
2022-08-16T15:23:25.451Z,29.72
2022-08-16T15:26:02.618Z,29.88
2022-08-16T15:28:31.785Z,29.85
2022-08-16T15:31:01.027Z,29.72
2022-08-16T15:33:32.241Z,29.48
2022-08-16T15:35:59.133Z,29.26
2022-08-16T15:38:57.528Z,29.00
2022-08-16T15:41:26.960Z,28.90
2022-08-16T15:44:05.474Z,28.75
2022-08-16T15:46:55.028Z,28.46
2022-08-16T15:49:23.702Z,28.35
2022-08-16T15:51:51.770Z,28.31
2022-08-16T15:54:30.039Z,28.46
2022-08-16T15:57:02.763Z,28.48
2022-08-16T15:59:49.493Z,28.45
2022-08-16T16:02:29.150Z,28.17
2022-08-16T16:04:57.536Z,28.07
2022-08-16T16:07:27.498Z,28.18
2022-08-16T16:09:58.246Z,28.26
2022-08-16T16:15:12.181Z,27.52
2022-08-16T16:17:38.551Z,27.48
2022-08-16T16:20:13.761Z,27.46
2022-08-16T16:22:41.722Z,27.16
2022-08-16T16:25:08.545Z,27.14
2022-08-16T16:27:36.137Z,26.91
2022-08-16T16:30:04.353Z,26.56
2022-08-16T16:32:50.710Z,26.64
2022-08-16T16:35:17.081Z,26.63
2022-08-16T16:37:44.244Z,26.74
2022-08-16T16:40:11.158Z,26.82
2022-08-16T16:42:44.211Z,26.63
2022-08-16T16:45:12.015Z,26.47
2022-08-16T16:47:41.427Z,26.64
2022-08-16T16:50:09.203Z,26.36
2022-08-16T16:52:44.304Z,26.39
2022-08-16T16:55:12.730Z,26.31
2022-08-16T16:57:57.879Z,25.98
2022-08-16T17:00:30.225Z,25.81
2022-08-16T17:03:05.492Z,25.66
2022-08-16T17:05:32.581Z,25.68
2022-08-16T17:07:59.172Z,25.82
2022-08-16T17:10:46.243Z,25.93
2022-08-16T17:13:13.900Z,25.96
2022-08-16T17:15:45.499Z,26.03
2022-08-16T17:19:15.466Z,25.95
2022-08-16T17:21:05.605Z,25.66
2022-08-16T17:23:58.418Z,25.66
2022-08-16T17:26:18.353Z,25.66
2022-08-16T17:28:59.556Z,25.44
2022-08-16T17:31:40.678Z,25.46
2022-08-16T17:34:29.390Z,25.45
2022-08-16T17:36:54.547Z,25.25
2022-08-16T17:39:21.112Z,25.12
2022-08-16T17:41:50.202Z,25.16
2022-08-16T17:44:19.109Z,24.90
2022-08-16T17:46:51.169Z,24.96
2022-08-16T17:49:19.014Z,24.92
2022-08-16T17:51:45.459Z,24.55
2022-08-16T17:54:20.397Z,24.58
2022-08-16T17:56:57.303Z,24.42
2022-08-16T17:59:24.176Z,24.49
2022-08-16T18:01:50.634Z,24.51
2022-08-16T18:04:48.815Z,24.49
2022-08-16T18:07:05.239Z,24.41
2022-08-16T18:09:31.633Z,24.41
2022-08-16T18:11:58.649Z,24.29
2022-08-16T18:14:52.499Z,24.06
2022-08-16T18:17:12.537Z,24.14
2022-08-16T18:19:39.063Z,24.16
2022-08-16T18:22:20.755Z,24.13
2022-08-16T18:24:47.736Z,24.12
2022-08-16T18:27:26.512Z,24.13
2022-08-16T18:29:53.601Z,24.17
2022-08-16T18:32:24.495Z,24.04
2022-08-16T18:34:51.489Z,23.98
2022-08-16T18:37:17.862Z,23.82
2022-08-16T18:39:48.116Z,23.67
2022-08-16T18:42:14.536Z,23.54
2022-08-16T18:44:42.453Z,23.46
2022-08-16T18:47:09.753Z,23.20
2022-08-16T18:49:36.735Z,23.22
2022-08-16T18:52:03.415Z,23.31
2022-08-16T18:54:30.231Z,23.54
2022-08-16T18:56:58.336Z,23.24
2022-08-16T18:59:28.507Z,23.09
2022-08-16T19:01:59.734Z,22.72
2022-08-16T19:04:55.364Z,22.57
2022-08-16T19:07:12.665Z,22.42
2022-08-16T19:09:40.195Z,22.31
2022-08-16T19:12:06.701Z,22.25
2022-08-16T19:14:33.071Z,22.26
2022-08-16T19:16:59.453Z,22.23
2022-08-16T19:19:25.849Z,22.13
2022-08-16T19:21:52.448Z,22.08
2022-08-16T19:24:19.041Z,22.05
2022-08-16T19:26:45.638Z,22.10
2022-08-16T19:29:12.011Z,22.06
2022-08-16T19:31:39.965Z,21.96
2022-08-16T19:34:08.156Z,21.95
2022-08-16T19:36:36.692Z,21.90
2022-08-16T19:39:05.885Z,21.92
2022-08-16T19:41:33.173Z,21.96
2022-08-16T19:43:59.553Z,21.90
2022-08-16T19:46:25.932Z,21.94
2022-08-16T19:48:52.522Z,21.91
2022-08-16T19:51:19.152Z,21.86
2022-08-16T19:53:45.541Z,21.85
2022-08-16T19:56:11.956Z,21.76
2022-08-16T19:58:47.363Z,21.72
2022-08-16T20:01:24.908Z,21.72
2022-08-16T20:03:51.863Z,21.65
2022-08-16T20:06:35.816Z,21.51
2022-08-16T20:09:04.624Z,21.54
2022-08-16T20:11:31.040Z,21.57
2022-08-16T20:13:57.677Z,21.50
2022-08-16T20:16:24.058Z,21.48
2022-08-16T20:18:50.422Z,21.48
2022-08-16T20:21:17.444Z,21.46
2022-08-16T20:23:44.116Z,21.34
2022-08-16T20:29:40.131Z,21.26
2022-08-16T20:32:06.947Z,21.34
2022-08-16T20:34:33.285Z,21.31
2022-08-16T20:36:59.645Z,21.31
2022-08-16T20:39:26.107Z,21.13
2022-08-16T20:41:52.491Z,21.21
2022-08-16T20:44:25.389Z,21.17
2022-08-16T20:46:51.812Z,20.99
2022-08-16T20:49:18.137Z,20.99
2022-08-16T20:51:46.906Z,20.96
2022-08-16T20:54:16.368Z,21.00
2022-08-16T20:56:42.756Z,20.97
2022-08-16T20:59:09.124Z,20.94
2022-08-16T21:01:46.969Z,21.08
2022-08-16T21:04:18.696Z,21.05
2022-08-16T21:06:47.336Z,21.04
2022-08-16T21:09:21.300Z,20.98
2022-08-16T21:11:51.555Z,21.09
2022-08-16T21:14:18.010Z,21.00
2022-08-16T21:16:44.398Z,20.93
2022-08-16T21:19:10.788Z,20.90
2022-08-16T21:21:37.196Z,20.89
2022-08-16T21:24:03.649Z,20.86
2022-08-16T21:26:30.132Z,20.88
2022-08-16T21:28:56.568Z,20.79
2022-08-16T21:31:23.542Z,20.80
2022-08-16T21:33:55.404Z,20.71
2022-08-16T21:36:35.262Z,20.78
2022-08-16T21:39:02.413Z,20.88
2022-08-16T21:41:28.790Z,20.80
2022-08-16T21:43:55.151Z,20.71
2022-08-16T21:46:21.541Z,20.44
2022-08-16T21:48:47.895Z,20.45
2022-08-16T21:51:15.757Z,20.29
2022-08-16T21:53:42.475Z,20.44
2022-08-16T21:56:12.682Z,20.20
2022-08-16T21:58:43.968Z,20.01
2022-08-16T22:01:10.347Z,20.14
2022-08-16T22:03:36.768Z,20.05
2022-08-16T22:06:13.277Z,20.22
2022-08-16T22:08:49.840Z,20.36
2022-08-16T22:11:20.608Z,20.08
2022-08-16T22:13:58.031Z,19.98
2022-08-16T22:16:25.107Z,19.99
2022-08-16T22:18:51.965Z,20.11
2022-08-16T22:21:18.957Z,20.25
2022-08-16T22:23:45.309Z,20.26
2022-08-16T22:26:30.448Z,20.30
2022-08-16T22:28:58.751Z,20.28
2022-08-16T22:31:25.381Z,20.33
2022-08-16T22:33:51.744Z,20.33
2022-08-16T22:36:18.106Z,20.30
2022-08-16T22:38:55.242Z,20.35
2022-08-16T22:41:23.280Z,20.44
2022-08-16T22:43:49.643Z,20.53
2022-08-16T22:46:16.202Z,20.70
2022-08-16T22:48:43.069Z,20.57
2022-08-16T22:51:09.486Z,20.52
2022-08-16T22:53:37.356Z,20.39
2022-08-16T22:56:04.388Z,20.44
2022-08-16T22:58:34.083Z,20.33
2022-08-16T23:01:04.467Z,20.06
2022-08-16T23:03:30.898Z,20.00
2022-08-16T23:05:58.327Z,20.00
2022-08-16T23:08:38.449Z,20.00
2022-08-16T23:11:10.672Z,19.87
2022-08-16T23:13:37.096Z,19.92
2022-08-16T23:16:10.713Z,19.88
2022-08-16T23:18:37.941Z,19.94
2022-08-16T23:21:05.081Z,19.97
2022-08-16T23:23:31.442Z,19.76
2022-08-16T23:25:57.973Z,19.62
2022-08-16T23:28:28.005Z,19.52
2022-08-16T23:30:54.889Z,19.32
2022-08-16T23:33:21.884Z,19.34
2022-08-16T23:35:49.129Z,19.48
2022-08-16T23:38:37.474Z,19.44
2022-08-16T23:41:04.063Z,19.36
2022-08-16T23:43:38.716Z,19.30
2022-08-16T23:46:06.673Z,19.31
2022-08-16T23:48:33.740Z,19.60
2022-08-16T23:51:20.190Z,19.59
2022-08-16T23:53:47.103Z,19.37
2022-08-16T23:56:15.291Z,19.27
2022-08-16T23:58:46.238Z,19.32
